Harle — ZCTV4 — position and weather

sailwx.info

Track history (hours):
 
Tides and Currents Weather Stations Pressure Air Temp Water Temp Dewpoint Dewpoint Depression Visibility Wind Speed Wind Dir Waves Ship Positions

Harle

Last reported at 2015-Sep-04 19:10 UTC. Time now 2015-Sep-05 01:17 UTC.
Position N 43°42' E 007°17'.

Length 45 m; draft 2.7 m.

Type: Pleasure craft. MMSI: 319323000.

Date/timePositionNaut miles runAvg speedWind from/ knotsBaromVisibWave heightAir tempDewpointWater temp
2015-Sep-04 19:10N 43°42' E 007°17'0 0.0
2015-Sep-04 17:10N 43°42' E 007°17'0 0.0
2015-Sep-04 16:28N 43°42' E 007°17'0 0.0
2015-Sep-04 03:16N 43°42' E 007°17'0 0.0
2015-Sep-04 02:04N 43°42' E 007°17'0 0.0
2015-Sep-04 00:22N 43°42' E 007°17'0 0.0
2015-Sep-03 05:28N 43°42' E 007°17'0 0.0
2015-Sep-01 10:16N 43°42' E 007°17'0 0.0
2015-Sep-01 04:28N 43°42' E 007°17'0 0.0
2015-Aug-31 23:22N 43°42' E 007°17'0 0.0
2015-Aug-31 22:04N 43°42' E 007°17'0 0.0
2015-Aug-30 11:05N 43°42' E 007°17'0 0.9
2015-Aug-30 10:33N 43°41' E 007°17'3 2.8
2015-Aug-30 09:34N 43°42' E 007°21'0 0.0
2015-Aug-30 08:15N 43°42' E 007°21'0 0.0
2015-Aug-30 06:09N 43°42' E 007°21'0 0.0
2015-Aug-30 05:28N 43°42' E 007°21'0 0.0
2015-Aug-30 04:22N 43°42' E 007°21'0 0.0
2015-Aug-30 03:21N 43°42' E 007°21'0 0.0
2015-Aug-30 02:33N 43°42' E 007°21'0 0.0
2015-Aug-30 01:33N 43°42' E 007°21'0 0.0
2015-Aug-30 00:33N 43°42' E 007°21'0 0.0
2015-Aug-29 23:33N 43°42' E 007°21'0 0.0
2015-Aug-29 22:21N 43°42' E 007°21'0 0.0
2015-Aug-29 21:27N 43°42' E 007°21'0 0.0
2015-Aug-29 20:27N 43°42' E 007°21'0 0.0
2015-Aug-29 19:15N 43°42' E 007°21'0 0.0
2015-Aug-29 18:33N 43°42' E 007°21'0 0.0
2015-Aug-29 17:21N 43°42' E 007°21'0 0.0
2015-Aug-29 16:25N 43°42' E 007°21'7 8.1
2015-Aug-29 15:30N 43°36' E 007°15'1010.3
2015-Aug-29 14:33N 43°32' E 007°03'0 0.0
2015-Aug-29 13:28N 43°32' E 007°03'0 0.0
2015-Aug-29 12:22N 43°32' E 007°03'0 0.0
2015-Aug-29 11:28N 43°32' E 007°03'0 0.0
2015-Aug-29 10:28N 43°32' E 007°03'0 0.0
2015-Aug-29 09:28N 43°32' E 007°03'0 0.0
2015-Aug-29 08:28N 43°32' E 007°03'0 0.0
2015-Aug-29 07:32N 43°32' E 007°03'7 7.2
2015-Aug-29 06:33N 43°26' E 006°58'1212.4
2015-Aug-29 05:33N 43°19' E 006°44'5 0.5
2015-Aug-28 19:29N 43°16' E 006°38'0 0.0
2015-Aug-28 15:31N 43°16' E 006°38'3 3.0
2015-Aug-28 14:33N 43°14' E 006°40'0 0.0
2015-Aug-28 13:28N 43°14' E 006°40'0 0.0
2015-Aug-28 12:28N 43°14' E 006°40'0 0.0
2015-Aug-28 11:25N 43°14' E 006°40'0 0.0
2015-Aug-28 10:22N 43°14' E 006°40'0 0.0
2015-Aug-28 09:28N 43°14' E 006°40'1 0.3
2015-Aug-28 07:33N 43°14' E 006°41'1212.1
2015-Aug-28 06:33N 43°22' E 006°53'1212.2
2015-Aug-28 05:33N 43°31' E 007°05'3 3.0
2015-Aug-28 04:33N 43°33' E 007°06'0 0.0
2015-Aug-28 03:33N 43°33' E 007°06'0 0.0
2015-Aug-28 02:33N 43°33' E 007°06'0 0.0
2015-Aug-28 01:33N 43°33' E 007°06'0 0.0
2015-Aug-28 00:21N 43°33' E 007°06'0 0.0
2015-Aug-27 23:33N 43°33' E 007°06'0 0.0
2015-Aug-27 22:33N 43°33' E 007°06'0 0.0
2015-Aug-27 21:28N 43°33' E 007°06'0 0.0
2015-Aug-27 20:33N 43°33' E 007°06'0 0.0
2015-Aug-27 19:33N 43°33' E 007°06'0 0.0
2015-Aug-27 18:33N 43°33' E 007°06'0 0.0
2015-Aug-27 17:33N 43°33' E 007°06'0 0.0
2015-Aug-27 16:33N 43°33' E 007°06'0 0.0
2015-Aug-27 15:33N 43°33' E 007°06'0 0.0
2015-Aug-27 14:33N 43°33' E 007°06'0 0.0
2015-Aug-27 13:33N 43°33' E 007°06'2 1.6
2015-Aug-27 12:33N 43°32' E 007°08'1312.9
2015-Aug-27 11:33N 43°41' E 007°22'  
Track history (hours):
 
Tides and Currents Weather Stations Pressure Air Temp Water Temp Dewpoint Dewpoint Depression Visibility Wind Speed Wind Dir Waves Ship Positions

Harle

Last reported at 2015-Sep-04 19:10 UTC. Time now 2015-Sep-05 01:17 UTC.
Position N 43°42' E 007°17'.

Length 45 m; draft 2.7 m.

Type: Pleasure craft. MMSI: 319323000.

Date/timePositionNaut miles runAvg speedWind from/ knotsBaromVisibWave heightAir tempDewpointWater temp
2015-Sep-04 19:10N 43°42' E 007°17'0 0.0
2015-Sep-04 17:10N 43°42' E 007°17'0 0.0
2015-Sep-04 16:28N 43°42' E 007°17'0 0.0
2015-Sep-04 03:16N 43°42' E 007°17'0 0.0
2015-Sep-04 02:04N 43°42' E 007°17'0 0.0
2015-Sep-04 00:22N 43°42' E 007°17'0 0.0
2015-Sep-03 05:28N 43°42' E 007°17'0 0.0
2015-Sep-01 10:16N 43°42' E 007°17'0 0.0
2015-Sep-01 04:28N 43°42' E 007°17'0 0.0
2015-Aug-31 23:22N 43°42' E 007°17'0 0.0
2015-Aug-31 22:04N 43°42' E 007°17'0 0.0
2015-Aug-30 11:05N 43°42' E 007°17'0 0.9
2015-Aug-30 10:33N 43°41' E 007°17'3 2.8
2015-Aug-30 09:34N 43°42' E 007°21'0 0.0
2015-Aug-30 08:15N 43°42' E 007°21'0 0.0
2015-Aug-30 06:09N 43°42' E 007°21'0 0.0
2015-Aug-30 05:28N 43°42' E 007°21'0 0.0
2015-Aug-30 04:22N 43°42' E 007°21'0 0.0
2015-Aug-30 03:21N 43°42' E 007°21'0 0.0
2015-Aug-30 02:33N 43°42' E 007°21'0 0.0
2015-Aug-30 01:33N 43°42' E 007°21'0 0.0
2015-Aug-30 00:33N 43°42' E 007°21'0 0.0
2015-Aug-29 23:33N 43°42' E 007°21'0 0.0
2015-Aug-29 22:21N 43°42' E 007°21'0 0.0
2015-Aug-29 21:27N 43°42' E 007°21'0 0.0
2015-Aug-29 20:27N 43°42' E 007°21'0 0.0
2015-Aug-29 19:15N 43°42' E 007°21'0 0.0
2015-Aug-29 18:33N 43°42' E 007°21'0 0.0
2015-Aug-29 17:21N 43°42' E 007°21'0 0.0
2015-Aug-29 16:25N 43°42' E 007°21'7 8.1
2015-Aug-29 15:30N 43°36' E 007°15'1010.3
2015-Aug-29 14:33N 43°32' E 007°03'0 0.0
2015-Aug-29 13:28N 43°32' E 007°03'0 0.0
2015-Aug-29 12:22N 43°32' E 007°03'0 0.0
2015-Aug-29 11:28N 43°32' E 007°03'0 0.0
2015-Aug-29 10:28N 43°32' E 007°03'0 0.0
2015-Aug-29 09:28N 43°32' E 007°03'0 0.0
2015-Aug-29 08:28N 43°32' E 007°03'0 0.0
2015-Aug-29 07:32N 43°32' E 007°03'7 7.2
2015-Aug-29 06:33N 43°26' E 006°58'1212.4
2015-Aug-29 05:33N 43°19' E 006°44'5 0.5
2015-Aug-28 19:29N 43°16' E 006°38'0 0.0
2015-Aug-28 15:31N 43°16' E 006°38'3 3.0
2015-Aug-28 14:33N 43°14' E 006°40'0 0.0
2015-Aug-28 13:28N 43°14' E 006°40'0 0.0
2015-Aug-28 12:28N 43°14' E 006°40'0 0.0
2015-Aug-28 11:25N 43°14' E 006°40'0 0.0
2015-Aug-28 10:22N 43°14' E 006°40'0 0.0
2015-Aug-28 09:28N 43°14' E 006°40'1 0.3
2015-Aug-28 07:33N 43°14' E 006°41'1212.1
2015-Aug-28 06:33N 43°22' E 006°53'1212.2
2015-Aug-28 05:33N 43°31' E 007°05'3 3.0
2015-Aug-28 04:33N 43°33' E 007°06'0 0.0
2015-Aug-28 03:33N 43°33' E 007°06'0 0.0
2015-Aug-28 02:33N 43°33' E 007°06'0 0.0
2015-Aug-28 01:33N 43°33' E 007°06'0 0.0
2015-Aug-28 00:21N 43°33' E 007°06'0 0.0
2015-Aug-27 23:33N 43°33' E 007°06'0 0.0
2015-Aug-27 22:33N 43°33' E 007°06'0 0.0
2015-Aug-27 21:28N 43°33' E 007°06'0 0.0
2015-Aug-27 20:33N 43°33' E 007°06'0 0.0
2015-Aug-27 19:33N 43°33' E 007°06'0 0.0
2015-Aug-27 18:33N 43°33' E 007°06'0 0.0
2015-Aug-27 17:33N 43°33' E 007°06'0 0.0
2015-Aug-27 16:33N 43°33' E 007°06'0 0.0
2015-Aug-27 15:33N 43°33' E 007°06'0 0.0
2015-Aug-27 14:33N 43°33' E 007°06'0 0.0
2015-Aug-27 13:33N 43°33' E 007°06'2 1.6
2015-Aug-27 12:33N 43°32' E 007°08'1312.9
2015-Aug-27 11:33N 43°41' E 007°22'  

Dump ship's entire track history